V.C. Bird International Airport (ANU/TAPA)



Flight Aircraft Arriving
CPX3283 SF34
TJSJ - Luis Munoz Marin International Airport
Puerto Rico San Juan, Puerto Rico
Flight Aircraft Departing
CPX3282 SF34
TJSJ - Luis Munoz Marin International Airport
Puerto Rico San Juan, Puerto Rico


Airport Information
Location: Antigua,
Coordinates: 17.1367 / 61.7927
Field Elevation: 62ft
Longest Runway: 9,987ft
ILS Approaches: NO
Landing Fees: $371 per flight
Jet A Price: $0.26/lbs

Current Weather
METAR: TAPA 191200Z 10011KT 060V140 9999 SCT018 28/24 Q1019 NOSIG
TAF: TAF TAPA 191100Z 1912/2012 09012KT 9999 SCT018 PROB40 TEMPO 1912/2012 SHRA PROB30 TEMPO 1914 /1918 4000 SHRA BKN015

Recent Arrivals
Date Flight Type Depart
05/07/2021 CPX3282 SF34 Luis Munoz Marin International Airport (TJSJ)
Recent Departures

Warning: Invalid argument supplied for foreach() in /var/www/capitollogistics/lib/skins/urban/hub/aptview.php on line 283
Date Flight Type Arrive